createdAt,value
2023-07-06T00:02:02.915Z,63.33
2023-07-06T00:04:34.858Z,63.47
2023-07-06T00:07:06.743Z,62.95
2023-07-06T00:09:39.023Z,63.76
2023-07-06T00:12:11.049Z,62.83
2023-07-06T00:14:42.770Z,63.68
2023-07-06T00:17:15.977Z,63.59
2023-07-06T00:19:47.533Z,65.57
2023-07-06T00:22:19.076Z,66.24
2023-07-06T00:24:50.609Z,66.72
2023-07-06T00:27:22.216Z,68.92
2023-07-06T00:29:53.829Z,68.22
2023-07-06T00:32:26.197Z,67.37
2023-07-06T00:34:58.372Z,69.79
2023-07-06T00:37:30.128Z,68.40
2023-07-06T00:40:01.796Z,67.99
2023-07-06T00:42:37.534Z,68.50
2023-07-06T00:45:11.669Z,70.52
2023-07-06T00:47:50.123Z,69.90
2023-07-06T00:50:27.218Z,70.11
2023-07-06T00:53:05.498Z,69.74
2023-07-06T00:55:40.301Z,68.73
2023-07-06T00:58:18.680Z,69.16
2023-07-06T01:00:54.108Z,69.85
2023-07-06T01:03:26.394Z,70.91
2023-07-06T01:06:03.550Z,70.21
2023-07-06T01:08:35.350Z,69.13
2023-07-06T01:11:09.323Z,68.75
2023-07-06T01:13:53.033Z,69.73
2023-07-06T01:16:53.652Z,68.44
2023-07-06T01:19:44.452Z,71.25
2023-07-06T01:22:22.290Z,71.00
2023-07-06T01:25:00.259Z,69.55
2023-07-06T01:28:13.224Z,69.05
2023-07-06T01:31:03.160Z,69.06
2023-07-06T01:33:59.458Z,69.41
2023-07-06T01:37:02.236Z,70.04
2023-07-06T01:39:34.134Z,72.93
2023-07-06T01:42:08.897Z,71.20
2023-07-06T01:44:44.321Z,73.44
2023-07-06T01:47:19.732Z,71.17
2023-07-06T01:49:53.686Z,70.97
2023-07-06T01:52:25.414Z,70.03
2023-07-06T01:55:09.504Z,69.90
2023-07-06T01:58:05.699Z,69.88
2023-07-06T02:00:46.466Z,68.90
2023-07-06T02:03:19.593Z,70.74
2023-07-06T02:05:52.540Z,69.59
2023-07-06T02:08:25.072Z,68.34
2023-07-06T02:10:56.826Z,71.15
2023-07-06T02:13:29.160Z,70.07
2023-07-06T02:16:01.805Z,68.61
2023-07-06T02:18:33.889Z,68.84
2023-07-06T02:21:05.555Z,71.05
2023-07-06T02:23:37.170Z,70.51
2023-07-06T02:26:08.786Z,71.42
2023-07-06T02:28:40.367Z,68.51
2023-07-06T02:31:11.992Z,69.86
2023-07-06T02:33:43.639Z,67.49
2023-07-06T02:36:15.404Z,66.94
2023-07-06T02:38:46.979Z,66.92
2023-07-06T02:41:18.585Z,68.13
2023-07-06T02:43:50.506Z,67.35
2023-07-06T02:46:22.279Z,67.58
2023-07-06T02:48:54.089Z,67.61
2023-07-06T02:51:25.904Z,67.02
2023-07-06T02:53:57.504Z,67.12
2023-07-06T02:56:29.262Z,67.15
2023-07-06T02:59:00.977Z,67.37
2023-07-06T03:01:32.708Z,67.35
2023-07-06T03:04:05.212Z,67.98
2023-07-06T03:06:38.773Z,68.03
2023-07-06T03:09:10.681Z,67.25
2023-07-06T03:11:42.419Z,67.14
2023-07-06T03:14:14.494Z,68.08
2023-07-06T03:16:46.181Z,67.34
2023-07-06T03:19:18.145Z,68.43
2023-07-06T03:21:49.910Z,67.85
2023-07-06T03:24:22.297Z,68.35
2023-07-06T03:26:54.619Z,67.92
2023-07-06T03:29:26.409Z,68.27
2023-07-06T03:31:59.123Z,68.31
2023-07-06T03:34:31.313Z,67.91
2023-07-06T03:37:02.985Z,69.18
2023-07-06T03:39:35.700Z,68.57
2023-07-06T03:42:07.976Z,71.34
2023-07-06T03:44:39.892Z,72.62
2023-07-06T03:47:12.020Z,70.92
2023-07-06T03:49:43.760Z,70.67
2023-07-06T03:52:15.293Z,71.95
2023-07-06T03:54:46.865Z,71.82
2023-07-06T03:57:18.417Z,73.88
2023-07-06T03:59:50.021Z,73.69
2023-07-06T04:02:21.637Z,73.16
2023-07-06T04:04:53.231Z,72.82
2023-07-06T04:07:24.814Z,73.02
2023-07-06T04:09:56.402Z,72.17
2023-07-06T04:12:27.986Z,72.06
2023-07-06T04:14:59.804Z,72.32
2023-07-06T04:17:32.752Z,71.93
2023-07-06T04:20:06.137Z,73.22
2023-07-06T04:22:37.683Z,72.03
2023-07-06T04:25:09.434Z,72.24
2023-07-06T04:27:40.953Z,74.09
2023-07-06T04:30:14.154Z,73.23
2023-07-06T04:32:50.458Z,74.48
2023-07-06T04:35:23.081Z,73.34
2023-07-06T04:37:55.620Z,71.82
2023-07-06T04:40:27.793Z,70.58
2023-07-06T04:42:59.522Z,69.83
2023-07-06T04:45:31.211Z,70.07
2023-07-06T04:48:02.880Z,70.37
2023-07-06T04:50:34.615Z,70.61
2023-07-06T04:53:06.425Z,71.35
2023-07-06T04:55:38.384Z,71.67
2023-07-06T04:58:10.356Z,70.94
2023-07-06T05:00:42.150Z,69.73
2023-07-06T05:03:14.778Z,69.38
2023-07-06T05:05:47.924Z,69.85
2023-07-06T05:08:20.148Z,68.71
2023-07-06T05:10:53.201Z,68.03
2023-07-06T05:13:26.078Z,68.57
2023-07-06T05:15:58.802Z,69.44
2023-07-06T05:18:30.807Z,68.49
2023-07-06T05:21:02.448Z,68.53
2023-07-06T05:23:34.497Z,68.42
2023-07-06T05:26:06.770Z,70.36
2023-07-06T05:28:38.707Z,71.34
2023-07-06T05:31:10.442Z,71.76
2023-07-06T05:33:42.240Z,70.51
2023-07-06T05:36:13.946Z,70.84
2023-07-06T05:38:45.837Z,70.78
2023-07-06T05:41:17.469Z,68.79
2023-07-06T05:43:49.010Z,67.46
2023-07-06T05:46:20.608Z,65.75
2023-07-06T05:48:54.443Z,67.79
2023-07-06T05:51:25.999Z,67.68
2023-07-06T05:53:57.571Z,67.11
2023-07-06T05:56:30.676Z,66.30
2023-07-06T05:59:02.225Z,62.87
2023-07-06T06:01:33.965Z,62.58
2023-07-06T06:04:05.551Z,63.10
2023-07-06T06:06:52.353Z,63.13
2023-07-06T06:09:26.041Z,62.78
2023-07-06T06:12:01.305Z,62.32
2023-07-06T06:14:33.935Z,62.09
2023-07-06T06:17:05.856Z,61.41
2023-07-06T06:19:38.734Z,61.32
2023-07-06T06:22:10.637Z,62.61
2023-07-06T06:24:42.870Z,60.36
2023-07-06T06:27:18.159Z,62.77
2023-07-06T06:29:49.836Z,60.76
2023-07-06T06:32:21.567Z,61.27
2023-07-06T06:34:53.578Z,60.27
2023-07-06T06:37:25.125Z,61.46
2023-07-06T06:39:56.694Z,60.18
2023-07-06T06:42:28.369Z,61.00
2023-07-06T06:45:00.865Z,59.90
2023-07-06T06:47:32.636Z,60.42
2023-07-06T06:50:04.731Z,59.54
2023-07-06T06:52:37.033Z,58.83
2023-07-06T06:55:09.330Z,58.62
2023-07-06T06:57:41.055Z,60.41
2023-07-06T07:00:14.846Z,59.46
2023-07-06T07:02:46.872Z,61.57
2023-07-06T07:05:18.872Z,59.20
2023-07-06T07:07:52.031Z,57.46
2023-07-06T07:10:25.381Z,55.59
2023-07-06T07:13:00.289Z,55.46
2023-07-06T07:15:33.148Z,58.39
2023-07-06T07:18:04.930Z,55.97
2023-07-06T07:20:36.850Z,56.87
2023-07-06T07:23:09.927Z,57.35
2023-07-06T07:25:42.141Z,56.47
2023-07-06T07:28:15.925Z,56.73
2023-07-06T07:30:58.004Z,57.42
2023-07-06T07:33:29.908Z,54.82
2023-07-06T07:36:03.409Z,54.96
2023-07-06T07:38:35.038Z,52.73
2023-07-06T07:41:08.824Z,54.39
2023-07-06T07:43:40.949Z,50.89
2023-07-06T07:46:12.967Z,52.19
2023-07-06T07:48:47.205Z,52.82
2023-07-06T07:51:23.007Z,51.75
2023-07-06T07:53:56.206Z,50.66
2023-07-06T07:56:28.780Z,51.65
2023-07-06T07:59:00.511Z,52.07
2023-07-06T08:01:32.220Z,52.65
2023-07-06T08:04:04.176Z,50.82
2023-07-06T08:06:35.946Z,48.02
2023-07-06T08:09:07.544Z,49.04
2023-07-06T08:11:39.837Z,48.42
2023-07-06T08:14:12.003Z,49.55
2023-07-06T08:16:43.649Z,50.83
2023-07-06T08:19:41.640Z,48.66
2023-07-06T08:22:10.021Z,49.06
2023-07-06T08:24:42.288Z,48.59
2023-07-06T08:27:16.108Z,48.37
2023-07-06T08:29:48.819Z,49.33
2023-07-06T08:32:20.710Z,48.69
2023-07-06T08:34:52.599Z,47.54
2023-07-06T08:37:24.230Z,49.09
2023-07-06T08:39:56.062Z,48.84
2023-07-06T08:42:28.669Z,48.80
2023-07-06T08:45:00.301Z,48.72
2023-07-06T08:47:32.311Z,50.24
2023-07-06T08:50:04.374Z,49.53
2023-07-06T08:52:36.075Z,48.43
2023-07-06T08:55:14.399Z,49.76
2023-07-06T08:57:47.392Z,50.09
2023-07-06T09:00:23.576Z,52.52
2023-07-06T09:03:07.004Z,51.39
2023-07-06T09:05:46.011Z,48.92
2023-07-06T09:08:19.631Z,48.65
2023-07-06T09:10:51.666Z,47.72
2023-07-06T09:13:26.995Z,50.38
2023-07-06T09:16:02.426Z,50.89
2023-07-06T09:18:34.534Z,48.54
2023-07-06T09:21:06.294Z,48.56
2023-07-06T09:23:38.073Z,49.50
2023-07-06T09:26:32.877Z,50.62
2023-07-06T09:29:14.373Z,48.81
2023-07-06T09:31:48.252Z,49.77
2023-07-06T09:34:30.226Z,49.80
2023-07-06T09:37:03.868Z,50.68
2023-07-06T09:39:35.427Z,48.66
2023-07-06T09:42:11.329Z,48.71
2023-07-06T09:44:43.132Z,47.46
2023-07-06T09:47:16.084Z,47.27
2023-07-06T09:49:57.297Z,47.32
2023-07-06T09:52:29.488Z,45.84
2023-07-06T09:55:06.684Z,46.21
2023-07-06T09:57:38.697Z,47.22
2023-07-06T10:00:17.634Z,49.33
2023-07-06T10:02:58.312Z,46.43
2023-07-06T10:05:42.156Z,47.37
2023-07-06T10:08:34.704Z,46.66
2023-07-06T10:11:18.804Z,47.21
2023-07-06T10:14:11.474Z,47.52
2023-07-06T10:17:14.829Z,46.95
2023-07-06T10:20:11.200Z,47.39
2023-07-06T10:23:20.644Z,47.49
2023-07-06T10:26:14.425Z,45.73
2023-07-06T10:29:00.699Z,43.92
2023-07-06T10:31:42.834Z,44.74
2023-07-06T10:34:24.896Z,44.71
2023-07-06T10:36:56.956Z,45.51
2023-07-06T10:39:28.455Z,43.53
2023-07-06T10:42:03.094Z,42.71
2023-07-06T10:44:40.621Z,45.14
2023-07-06T10:47:33.651Z,44.09
2023-07-06T10:50:08.763Z,45.17
2023-07-06T10:52:53.424Z,43.89
2023-07-06T10:55:30.431Z,43.56
2023-07-06T10:58:23.827Z,43.92
2023-07-06T11:01:08.277Z,43.02
2023-07-06T11:03:44.585Z,43.64
2023-07-06T11:06:35.431Z,42.70
2023-07-06T11:09:07.167Z,44.49
2023-07-06T11:12:03.658Z,44.51
2023-07-06T11:14:40.093Z,44.76
2023-07-06T11:17:21.276Z,43.95
2023-07-06T11:20:16.392Z,44.97
2023-07-06T11:22:54.995Z,44.42
2023-07-06T11:25:28.476Z,42.42
2023-07-06T11:28:05.804Z,42.57
2023-07-06T11:30:57.957Z,42.81
2023-07-06T11:33:43.945Z,42.93
2023-07-06T11:36:40.052Z,45.43
2023-07-06T11:39:48.848Z,43.56
2023-07-06T11:42:57.950Z,42.02
2023-07-06T11:45:29.530Z,41.39
2023-07-06T11:48:07.414Z,42.51
2023-07-06T11:50:40.765Z,42.68
2023-07-06T11:53:15.657Z,42.10
2023-07-06T11:55:48.037Z,41.22
2023-07-06T11:58:23.421Z,41.92
2023-07-06T12:00:58.261Z,41.88
2023-07-06T12:03:30.217Z,42.06
2023-07-06T12:06:02.751Z,41.09
2023-07-06T12:08:37.459Z,40.51
2023-07-06T12:11:17.378Z,41.13
2023-07-06T12:13:55.821Z,41.39
2023-07-06T12:16:39.597Z,42.02
2023-07-06T12:19:13.908Z,41.63
2023-07-06T12:21:53.553Z,42.12
2023-07-06T12:24:27.808Z,41.42
2023-07-06T12:27:03.717Z,40.73
2023-07-06T12:29:35.533Z,41.98
2023-07-06T12:32:17.525Z,40.36
2023-07-06T12:34:54.397Z,38.41
2023-07-06T12:37:26.382Z,39.23
2023-07-06T12:39:58.543Z,39.46
2023-07-06T12:42:30.483Z,38.68
2023-07-06T12:45:03.749Z,40.85
2023-07-06T12:47:38.864Z,38.13
2023-07-06T12:50:18.592Z,38.03
2023-07-06T12:52:50.715Z,38.27
2023-07-06T12:55:24.136Z,39.28
2023-07-06T12:57:56.328Z,38.57
2023-07-06T13:00:30.304Z,37.37
2023-07-06T13:03:05.155Z,36.05
2023-07-06T13:05:38.470Z,36.74
2023-07-06T13:08:14.977Z,38.28
2023-07-06T13:10:59.056Z,38.44
2023-07-06T13:13:38.879Z,38.08
2023-07-06T13:16:19.231Z,39.45
2023-07-06T13:18:51.141Z,37.99
2023-07-06T13:21:27.515Z,37.87
2023-07-06T13:23:59.183Z,40.93
2023-07-06T13:26:31.223Z,42.68
2023-07-06T13:29:02.794Z,41.09
2023-07-06T13:31:52.001Z,40.34
2023-07-06T13:34:25.626Z,43.79
2023-07-06T13:36:57.139Z,43.67
2023-07-06T13:39:28.699Z,46.20
2023-07-06T13:42:00.293Z,44.60
2023-07-06T13:44:31.858Z,45.24
2023-07-06T13:47:05.719Z,42.29
2023-07-06T13:49:37.455Z,40.73
2023-07-06T13:52:09.143Z,41.27
2023-07-06T13:54:40.750Z,39.94
2023-07-06T13:57:12.443Z,42.25
2023-07-06T13:59:44.112Z,43.36
2023-07-06T14:02:15.993Z,43.25
2023-07-06T14:04:47.660Z,43.62
2023-07-06T14:07:19.364Z,42.90
2023-07-06T14:09:51.106Z,43.00
2023-07-06T14:12:22.941Z,42.00
2023-07-06T14:14:54.961Z,42.97
2023-07-06T14:17:27.392Z,42.17
2023-07-06T14:20:03.312Z,41.53
2023-07-06T14:22:35.679Z,42.39
2023-07-06T14:25:23.819Z,42.06
2023-07-06T14:27:57.105Z,43.48
2023-07-06T14:30:28.909Z,42.30
2023-07-06T14:33:04.927Z,43.18
2023-07-06T14:35:37.438Z,43.23
2023-07-06T14:38:10.171Z,42.21
2023-07-06T14:40:42.645Z,42.48
2023-07-06T14:43:14.278Z,41.93
2023-07-06T14:45:46.084Z,43.67
2023-07-06T14:48:17.927Z,43.73
2023-07-06T14:50:49.854Z,44.97
2023-07-06T14:53:21.664Z,45.98
2023-07-06T14:55:54.125Z,44.10
2023-07-06T14:58:27.629Z,45.97
2023-07-06T15:00:59.572Z,43.68
2023-07-06T15:03:31.471Z,42.86
2023-07-06T15:06:05.400Z,42.37
2023-07-06T15:08:37.031Z,40.03
2023-07-06T15:11:08.598Z,42.53
2023-07-06T15:13:40.405Z,43.16
2023-07-06T15:16:12.064Z,41.68
2023-07-06T15:18:43.626Z,42.43
2023-07-06T15:21:19.041Z,42.93
2023-07-06T15:23:50.773Z,43.52
2023-07-06T15:26:22.357Z,43.75
2023-07-06T15:28:54.044Z,42.59
2023-07-06T15:31:25.685Z,42.50
2023-07-06T15:33:57.287Z,42.53
2023-07-06T15:36:29.539Z,43.84
2023-07-06T15:39:01.247Z,43.65
2023-07-06T15:41:34.190Z,43.79
2023-07-06T15:44:07.073Z,41.73
2023-07-06T15:46:38.644Z,41.26
2023-07-06T15:49:10.949Z,41.01
2023-07-06T15:51:42.625Z,42.36
2023-07-06T15:54:14.407Z,42.70
2023-07-06T15:56:46.200Z,41.88
2023-07-06T15:59:18.063Z,43.71
2023-07-06T16:01:49.955Z,41.92
2023-07-06T16:04:21.793Z,40.50
2023-07-06T16:06:53.761Z,41.64
2023-07-06T16:09:25.689Z,39.68
2023-07-06T16:11:57.479Z,41.60
2023-07-06T16:14:29.451Z,42.22
2023-07-06T16:17:01.214Z,42.86
2023-07-06T16:19:32.934Z,42.98
2023-07-06T16:22:04.901Z,43.53
2023-07-06T16:24:36.695Z,44.27
2023-07-06T16:27:08.591Z,44.85
2023-07-06T16:29:41.663Z,44.24
2023-07-06T16:32:14.274Z,45.63
2023-07-06T16:34:46.105Z,45.25
2023-07-06T16:37:18.411Z,43.88
2023-07-06T16:39:51.474Z,38.01
2023-07-06T16:42:23.264Z,35.83
2023-07-06T16:44:58.680Z,35.07
2023-07-06T16:47:31.088Z,34.28
2023-07-06T16:50:03.223Z,40.33
2023-07-06T16:52:55.400Z,37.05
2023-07-06T16:55:27.428Z,37.76
2023-07-06T16:58:11.508Z,39.82
2023-07-06T17:00:45.209Z,40.48
2023-07-06T17:03:19.609Z,39.21
2023-07-06T17:05:54.660Z,40.83
2023-07-06T17:08:27.459Z,40.33
2023-07-06T17:11:08.848Z,43.61
2023-07-06T17:13:40.566Z,43.37
2023-07-06T17:16:12.254Z,42.41
2023-07-06T17:18:43.844Z,43.92
2023-07-06T17:21:15.611Z,43.78
2023-07-06T17:23:47.157Z,44.18
2023-07-06T17:26:18.801Z,43.19
2023-07-06T17:28:50.317Z,43.62
2023-07-06T17:31:21.950Z,44.72
2023-07-06T17:33:53.634Z,45.37
2023-07-06T17:36:25.286Z,45.18
2023-07-06T17:38:56.890Z,44.52
2023-07-06T17:41:28.445Z,44.04
2023-07-06T17:44:00.697Z,46.38
2023-07-06T17:46:32.251Z,46.65
2023-07-06T17:49:03.885Z,45.44
2023-07-06T17:51:35.704Z,44.90
2023-07-06T17:54:07.323Z,45.44
2023-07-06T17:56:39.094Z,46.00
2023-07-06T17:59:10.929Z,46.74
2023-07-06T18:01:42.722Z,45.92
2023-07-06T18:04:14.806Z,45.22
2023-07-06T18:06:46.620Z,45.59
2023-07-06T18:09:18.491Z,46.15
2023-07-06T18:11:50.290Z,45.12
2023-07-06T18:14:22.296Z,45.78
2023-07-06T18:16:54.036Z,48.04
2023-07-06T18:19:25.682Z,46.61
2023-07-06T18:21:58.371Z,45.72
2023-07-06T18:24:30.080Z,45.37
2023-07-06T18:27:01.694Z,46.44
2023-07-06T18:29:33.881Z,48.19
2023-07-06T18:32:06.415Z,47.92
2023-07-06T18:34:38.183Z,49.29
2023-07-06T18:37:09.845Z,49.37
2023-07-06T18:39:44.271Z,48.50
2023-07-06T18:42:17.047Z,48.62
2023-07-06T18:45:03.033Z,47.98
2023-07-06T18:47:36.784Z,48.38
2023-07-06T18:50:08.973Z,48.18
2023-07-06T18:52:40.544Z,48.54
2023-07-06T18:55:12.130Z,48.34
2023-07-06T18:57:43.725Z,50.04
2023-07-06T19:00:15.783Z,49.91
2023-07-06T19:02:47.582Z,50.18
2023-07-06T19:05:19.182Z,50.11
2023-07-06T19:08:00.572Z,51.15
2023-07-06T19:10:39.070Z,52.18
2023-07-06T19:13:12.023Z,51.77
2023-07-06T19:15:48.362Z,53.01
2023-07-06T19:18:20.244Z,53.01
2023-07-06T19:20:52.339Z,52.48
2023-07-06T19:23:24.087Z,52.86
2023-07-06T19:25:57.103Z,52.92
2023-07-06T19:28:29.470Z,54.06
2023-07-06T19:31:02.054Z,53.58
2023-07-06T19:33:35.252Z,53.45
2023-07-06T19:36:15.217Z,52.79
2023-07-06T19:38:55.381Z,53.07
2023-07-06T19:41:36.876Z,53.43
2023-07-06T19:44:14.188Z,54.07
2023-07-06T19:46:47.847Z,55.22
2023-07-06T19:49:26.287Z,55.51
2023-07-06T19:51:59.341Z,55.56
2023-07-06T19:54:33.971Z,55.48
2023-07-06T19:57:12.377Z,55.28
2023-07-06T19:59:47.854Z,56.28
2023-07-06T20:02:25.725Z,56.05
2023-07-06T20:05:01.801Z,57.18
2023-07-06T20:07:34.860Z,56.04
2023-07-06T20:10:20.061Z,56.61
2023-07-06T20:13:00.783Z,56.65
2023-07-06T20:15:37.193Z,56.27
2023-07-06T20:18:17.332Z,56.91
2023-07-06T20:20:56.758Z,56.93
2023-07-06T20:23:33.126Z,57.30
2023-07-06T20:26:17.027Z,57.21
2023-07-06T20:28:56.779Z,56.67
2023-07-06T20:31:39.825Z,57.03
2023-07-06T20:34:14.972Z,57.11
2023-07-06T20:36:58.116Z,57.26
2023-07-06T20:39:36.782Z,57.47
2023-07-06T20:42:10.041Z,58.29
2023-07-06T20:44:51.663Z,59.14
2023-07-06T20:47:26.992Z,60.11
2023-07-06T20:50:05.764Z,60.10
2023-07-06T20:52:37.452Z,59.78
2023-07-06T20:55:09.281Z,60.08
2023-07-06T20:57:40.916Z,59.72
2023-07-06T21:00:14.404Z,60.87
2023-07-06T21:02:46.218Z,60.26
2023-07-06T21:05:17.846Z,60.71
2023-07-06T21:07:53.987Z,60.61
2023-07-06T21:10:26.917Z,60.43
2023-07-06T21:12:58.653Z,61.40
2023-07-06T21:15:30.280Z,62.02
2023-07-06T21:18:01.981Z,61.36
2023-07-06T21:20:33.657Z,61.44
2023-07-06T21:23:05.219Z,61.11
2023-07-06T21:25:36.876Z,61.40
2023-07-06T21:28:08.938Z,62.55
2023-07-06T21:30:41.920Z,62.59
2023-07-06T21:33:13.554Z,62.26
2023-07-06T21:35:45.140Z,62.16
2023-07-06T21:38:16.773Z,63.04
2023-07-06T21:40:52.390Z,63.11
2023-07-06T21:43:24.339Z,62.67
2023-07-06T21:45:55.930Z,62.83
2023-07-06T21:48:27.624Z,62.54
2023-07-06T21:50:59.951Z,61.82
2023-07-06T21:53:32.237Z,61.63
2023-07-06T21:56:07.901Z,62.12
2023-07-06T21:58:41.308Z,61.18
2023-07-06T22:01:13.871Z,62.08
2023-07-06T22:03:45.876Z,62.23
2023-07-06T22:06:20.942Z,61.63
2023-07-06T22:08:53.211Z,61.69
2023-07-06T22:11:28.812Z,61.93
2023-07-06T22:14:00.663Z,62.51
2023-07-06T22:16:32.460Z,61.93
2023-07-06T22:19:04.097Z,62.07
2023-07-06T22:21:35.776Z,61.57
2023-07-06T22:24:07.778Z,60.75
2023-07-06T22:26:39.452Z,60.54
2023-07-06T22:29:11.301Z,61.33
2023-07-06T22:31:43.139Z,61.19
2023-07-06T22:34:14.872Z,60.72
2023-07-06T22:36:46.454Z,60.17
2023-07-06T22:39:18.019Z,60.90
2023-07-06T22:41:49.847Z,61.28
2023-07-06T22:44:21.603Z,62.36
2023-07-06T22:46:53.242Z,61.41
2023-07-06T22:49:24.960Z,60.64
2023-07-06T22:51:57.381Z,59.40
2023-07-06T22:54:29.041Z,60.16
2023-07-06T22:57:01.289Z,60.09
2023-07-06T22:59:32.908Z,60.01
2023-07-06T23:02:04.864Z,59.95
2023-07-06T23:04:36.363Z,60.60
2023-07-06T23:07:07.840Z,61.14
2023-07-06T23:09:39.434Z,60.88
2023-07-06T23:12:11.089Z,60.60
2023-07-06T23:14:42.646Z,60.89
2023-07-06T23:17:14.488Z,61.84
2023-07-06T23:19:47.035Z,62.67
2023-07-06T23:22:18.609Z,62.60
2023-07-06T23:24:50.214Z,62.56
2023-07-06T23:27:21.775Z,62.97
2023-07-06T23:29:53.515Z,62.66
2023-07-06T23:32:31.094Z,63.68
2023-07-06T23:35:02.595Z,63.49
2023-07-06T23:37:34.211Z,63.14
2023-07-06T23:40:06.279Z,63.86
2023-07-06T23:42:38.140Z,63.36
2023-07-06T23:45:10.246Z,63.66
2023-07-06T23:47:42.008Z,64.11
2023-07-06T23:50:13.584Z,64.64
2023-07-06T23:52:45.177Z,64.05
2023-07-06T23:55:16.942Z,64.15
2023-07-06T23:57:48.632Z,64.34
